createdAt,value
2018-08-20T00:01:44.879Z,99.90
2018-08-20T00:04:14.337Z,99.90
2018-08-20T00:06:52.185Z,99.90
2018-08-20T00:09:24.758Z,99.90
2018-08-20T00:11:53.969Z,99.90
2018-08-20T00:14:23.162Z,99.90
2018-08-20T00:16:52.336Z,99.90
2018-08-20T00:19:21.373Z,99.90
2018-08-20T00:21:50.425Z,99.90
2018-08-20T00:24:19.496Z,99.90
2018-08-20T00:26:48.648Z,99.90
2018-08-20T00:29:17.790Z,99.90
2018-08-20T00:31:46.963Z,99.90
2018-08-20T00:34:16.869Z,99.90
2018-08-20T00:36:46.987Z,99.90
2018-08-20T00:39:16.118Z,99.90
2018-08-20T00:41:45.898Z,99.90
2018-08-20T00:44:17.279Z,99.90
2018-08-20T00:46:46.832Z,99.90
2018-08-20T00:49:16.794Z,99.90
2018-08-20T00:51:46.264Z,99.90
2018-08-20T00:54:15.565Z,99.90
2018-08-20T00:56:44.631Z,99.90
2018-08-20T00:59:13.864Z,99.90
2018-08-20T01:01:43.000Z,99.90
2018-08-20T01:04:12.232Z,99.90
2018-08-20T01:06:41.324Z,99.90
2018-08-20T01:09:10.450Z,99.90
2018-08-20T01:11:39.519Z,99.90
2018-08-20T01:14:08.634Z,99.90
2018-08-20T01:16:37.892Z,99.90
2018-08-20T01:19:06.988Z,99.90
2018-08-20T01:21:36.196Z,99.90
2018-08-20T01:24:05.312Z,99.90
2018-08-20T01:26:34.480Z,99.90
2018-08-20T01:29:03.667Z,99.90
2018-08-20T01:31:32.733Z,99.90
2018-08-20T01:34:01.930Z,99.90
2018-08-20T01:36:31.004Z,99.90
2018-08-20T01:39:00.167Z,99.90
2018-08-20T01:41:29.268Z,99.90
2018-08-20T01:43:58.352Z,99.90
2018-08-20T01:46:27.459Z,99.90
2018-08-20T01:48:56.541Z,99.90
2018-08-20T01:51:25.640Z,99.90
2018-08-20T01:53:54.702Z,99.90
2018-08-20T01:56:23.827Z,99.90
2018-08-20T01:58:52.900Z,99.90
2018-08-20T02:01:21.960Z,99.90
2018-08-20T02:03:51.147Z,99.90
2018-08-20T02:06:21.168Z,99.90
2018-08-20T02:08:50.296Z,99.90
2018-08-20T02:11:19.376Z,99.90
2018-08-20T02:13:48.497Z,99.90
2018-08-20T02:16:17.592Z,99.90
2018-08-20T02:18:46.700Z,99.90
2018-08-20T02:21:15.774Z,99.90
2018-08-20T02:23:44.836Z,99.90
2018-08-20T02:26:13.904Z,99.90
2018-08-20T02:28:42.963Z,99.90
2018-08-20T02:31:12.092Z,99.90
2018-08-20T02:33:41.211Z,99.90
2018-08-20T02:36:10.407Z,99.90
2018-08-20T02:38:39.454Z,99.90
2018-08-20T02:41:08.723Z,99.90
2018-08-20T02:43:37.783Z,99.90
2018-08-20T02:46:06.904Z,99.90
2018-08-20T02:48:36.032Z,99.90
2018-08-20T02:51:05.144Z,99.90
2018-08-20T02:53:34.449Z,99.90
2018-08-20T02:56:03.569Z,99.90
2018-08-20T02:58:32.680Z,99.90
2018-08-20T03:01:01.997Z,99.90
2018-08-20T03:03:31.068Z,99.90
2018-08-20T03:06:00.180Z,99.90
2018-08-20T03:08:29.231Z,99.90
2018-08-20T03:10:58.316Z,99.90
2018-08-20T03:13:27.403Z,99.90
2018-08-20T03:15:56.495Z,99.90
2018-08-20T03:18:25.731Z,99.90
2018-08-20T03:20:54.793Z,99.90
2018-08-20T03:23:23.891Z,99.90
2018-08-20T03:25:52.972Z,99.90
2018-08-20T03:28:22.088Z,99.90
2018-08-20T03:30:51.257Z,99.90
2018-08-20T03:33:20.325Z,99.90
2018-08-20T03:35:49.467Z,99.90
2018-08-20T03:38:18.544Z,99.90
2018-08-20T03:40:47.632Z,99.90
2018-08-20T03:43:16.848Z,99.90
2018-08-20T03:45:45.934Z,99.90
2018-08-20T03:48:15.136Z,99.90
2018-08-20T03:50:44.268Z,99.90
2018-08-20T03:53:13.724Z,99.90
2018-08-20T03:55:42.786Z,99.90
2018-08-20T03:58:11.917Z,99.90
2018-08-20T04:00:40.996Z,99.90
2018-08-20T04:03:10.124Z,99.90
2018-08-20T04:05:39.242Z,99.90
2018-08-20T04:08:08.331Z,99.90
2018-08-20T04:10:37.560Z,99.90
2018-08-20T04:13:06.692Z,99.90
2018-08-20T04:15:35.876Z,99.90
2018-08-20T04:18:04.980Z,99.90
2018-08-20T04:20:34.057Z,99.90
2018-08-20T04:23:03.112Z,99.90
2018-08-20T04:25:32.267Z,99.90
2018-08-20T04:28:01.441Z,99.90
2018-08-20T04:30:30.550Z,99.90
2018-08-20T04:32:59.611Z,99.90
2018-08-20T04:35:28.717Z,99.90
2018-08-20T04:37:57.824Z,99.90
2018-08-20T04:40:26.948Z,99.90
2018-08-20T04:42:56.021Z,99.90
2018-08-20T04:45:25.123Z,99.90
2018-08-20T04:47:54.188Z,99.90
2018-08-20T04:50:23.621Z,99.90
2018-08-20T04:52:52.595Z,99.90
2018-08-20T04:55:21.659Z,99.90
2018-08-20T04:57:50.808Z,99.90
2018-08-20T05:00:20.440Z,99.90
2018-08-20T05:02:49.514Z,99.90
2018-08-20T05:05:18.666Z,99.90
2018-08-20T05:07:47.704Z,99.90
2018-08-20T05:10:16.780Z,99.90
2018-08-20T05:12:45.850Z,99.90
2018-08-20T05:15:14.920Z,99.90
2018-08-20T05:17:44.006Z,99.90
2018-08-20T05:20:13.126Z,99.90
2018-08-20T05:22:42.273Z,99.90
2018-08-20T05:25:11.341Z,99.90
2018-08-20T05:27:40.391Z,99.90
2018-08-20T05:30:09.740Z,99.90
2018-08-20T05:32:38.831Z,99.90
2018-08-20T05:35:07.980Z,99.90
2018-08-20T05:37:37.136Z,99.90
2018-08-20T05:40:06.438Z,99.90
2018-08-20T05:42:35.516Z,99.90
2018-08-20T05:45:06.052Z,99.90
2018-08-20T05:47:35.186Z,99.90
2018-08-20T05:50:04.663Z,99.90
2018-08-20T05:52:33.742Z,99.90
2018-08-20T05:55:02.860Z,99.90
2018-08-20T05:57:32.015Z,99.90
2018-08-20T06:00:01.115Z,99.90
2018-08-20T06:02:30.250Z,99.90
2018-08-20T06:04:59.433Z,99.90
2018-08-20T06:07:28.526Z,99.90
2018-08-20T06:09:57.618Z,99.90
2018-08-20T06:12:26.744Z,99.90
2018-08-20T06:14:55.821Z,99.90
2018-08-20T06:17:24.949Z,99.90
2018-08-20T06:19:54.109Z,99.90
2018-08-20T06:22:23.238Z,99.90
2018-08-20T06:24:52.419Z,99.90
2018-08-20T06:27:21.526Z,99.90
2018-08-20T06:29:50.644Z,99.90
2018-08-20T06:32:19.827Z,99.90
2018-08-20T06:34:48.963Z,99.90
2018-08-20T06:37:18.056Z,99.90
2018-08-20T06:39:47.123Z,99.90
2018-08-20T06:42:16.275Z,99.90
2018-08-20T06:44:45.301Z,99.90
2018-08-20T06:47:14.462Z,99.90
2018-08-20T06:49:43.531Z,99.90
2018-08-20T06:52:12.653Z,99.90
2018-08-20T06:54:41.737Z,99.90
2018-08-20T06:57:10.819Z,99.90
2018-08-20T06:59:39.901Z,99.90
2018-08-20T07:02:09.242Z,99.90
2018-08-20T07:04:38.303Z,99.90
2018-08-20T07:07:07.447Z,99.90
2018-08-20T07:09:36.540Z,99.90
2018-08-20T07:12:05.806Z,99.90
2018-08-20T07:14:34.914Z,99.90
2018-08-20T07:17:04.144Z,99.90
2018-08-20T07:19:33.561Z,99.90
2018-08-20T07:22:02.819Z,99.90
2018-08-20T07:24:31.941Z,99.90
2018-08-20T07:27:01.112Z,99.90
2018-08-20T07:29:48.183Z,99.90
2018-08-20T07:32:17.480Z,99.90
2018-08-20T07:34:47.053Z,99.90
2018-08-20T07:37:17.256Z,99.90
2018-08-20T07:39:47.592Z,99.90
2018-08-20T07:42:17.654Z,99.90
2018-08-20T07:44:46.716Z,99.90
2018-08-20T07:47:15.829Z,99.90
2018-08-20T07:49:44.960Z,99.90
2018-08-20T07:52:14.087Z,99.90
2018-08-20T07:54:43.217Z,99.90
2018-08-20T07:57:12.420Z,99.90
2018-08-20T07:59:41.513Z,99.90
2018-08-20T08:02:10.642Z,99.90
2018-08-20T08:04:39.752Z,99.90
2018-08-20T08:07:08.877Z,99.90
2018-08-20T08:09:38.243Z,99.90
2018-08-20T08:12:07.733Z,99.90
2018-08-20T08:14:36.904Z,99.90
2018-08-20T08:17:06.231Z,99.90
2018-08-20T08:19:35.455Z,99.90
2018-08-20T08:22:04.567Z,99.90
2018-08-20T08:24:33.765Z,99.90
2018-08-20T08:27:02.888Z,99.90
2018-08-20T08:29:31.988Z,99.90
2018-08-20T08:32:01.149Z,99.90
2018-08-20T08:34:30.349Z,99.90
2018-08-20T08:36:59.555Z,99.60
2018-08-20T08:39:28.766Z,99.50
2018-08-20T08:41:57.878Z,99.90
2018-08-20T08:44:27.165Z,99.90
2018-08-20T08:46:57.040Z,99.90
2018-08-20T08:49:26.243Z,99.90
2018-08-20T08:51:55.440Z,99.90
2018-08-20T08:54:24.613Z,99.90
2018-08-20T08:56:54.048Z,99.90
2018-08-20T08:59:23.315Z,99.90
2018-08-20T09:01:52.556Z,99.90
2018-08-20T09:04:22.122Z,99.90
2018-08-20T09:06:51.337Z,99.90
2018-08-20T09:09:21.461Z,99.80
2018-08-20T09:11:50.940Z,98.20
2018-08-20T09:14:20.148Z,95.10
2018-08-20T09:16:49.338Z,98.40
2018-08-20T09:19:18.745Z,99.90
2018-08-20T09:21:47.845Z,99.90
2018-08-20T09:24:16.982Z,99.90
2018-08-20T09:26:46.177Z,99.90
2018-08-20T09:29:15.262Z,99.90
2018-08-20T09:31:44.772Z,99.90
2018-08-20T09:34:14.250Z,99.90
2018-08-20T09:36:43.491Z,99.90
2018-08-20T09:39:12.671Z,99.90
2018-08-20T09:41:41.793Z,99.90
2018-08-20T09:44:10.941Z,99.90
2018-08-20T09:46:40.098Z,99.90
2018-08-20T09:49:09.314Z,99.90
2018-08-20T09:51:38.578Z,99.90
2018-08-20T09:54:07.823Z,99.90
2018-08-20T09:56:37.131Z,99.90
2018-08-20T09:59:06.455Z,99.90
2018-08-20T10:01:35.627Z,99.90
2018-08-20T10:04:04.870Z,99.90
2018-08-20T10:06:34.112Z,99.90
2018-08-20T10:09:03.830Z,99.90
2018-08-20T10:11:33.131Z,96.40
2018-08-20T10:14:02.564Z,96.10
2018-08-20T10:16:32.350Z,95.40
2018-08-20T10:19:01.861Z,96.40
2018-08-20T10:21:31.215Z,93.20
2018-08-20T10:24:00.662Z,94.10
2018-08-20T10:26:29.908Z,93.00
2018-08-20T10:28:59.010Z,90.20
2018-08-20T10:31:28.191Z,92.70
2018-08-20T10:33:57.491Z,94.80
2018-08-20T10:36:27.171Z,93.10
2018-08-20T10:38:56.640Z,94.20
2018-08-20T10:41:26.215Z,95.10
2018-08-20T10:43:55.501Z,97.20
2018-08-20T10:46:27.764Z,95.90
2018-08-20T10:48:58.131Z,96.70
2018-08-20T10:51:27.720Z,95.40
2018-08-20T10:53:56.976Z,97.40
2018-08-20T10:56:26.385Z,97.50
2018-08-20T10:58:55.704Z,97.30
2018-08-20T11:01:25.145Z,97.30
2018-08-20T11:03:58.971Z,98.20
2018-08-20T11:06:29.176Z,98.80
2018-08-20T11:09:00.066Z,99.90
2018-08-20T11:11:29.615Z,99.70
2018-08-20T11:13:59.898Z,99.90
2018-08-20T11:16:29.168Z,99.90
2018-08-20T11:18:58.508Z,99.90
2018-08-20T11:21:27.649Z,99.90
2018-08-20T11:23:57.249Z,99.90
2018-08-20T11:26:26.514Z,99.90
2018-08-20T11:28:55.748Z,99.90
2018-08-20T11:31:24.892Z,99.90
2018-08-20T11:33:54.376Z,99.90
2018-08-20T11:36:23.533Z,99.90
2018-08-20T11:38:52.668Z,99.90
2018-08-20T11:41:21.768Z,99.90
2018-08-20T11:43:50.963Z,99.90
2018-08-20T11:46:20.105Z,99.90
2018-08-20T11:48:49.276Z,99.90
2018-08-20T11:51:18.371Z,99.90
2018-08-20T11:53:47.475Z,99.90
2018-08-20T11:56:16.581Z,99.90
2018-08-20T11:58:45.704Z,99.90
2018-08-20T12:01:14.861Z,99.90
2018-08-20T12:03:46.969Z,99.90
2018-08-20T12:06:16.305Z,99.90
2018-08-20T12:08:45.495Z,99.90
2018-08-20T12:11:14.710Z,99.90
2018-08-20T12:13:43.843Z,99.90
2018-08-20T12:16:12.988Z,99.90
2018-08-20T12:18:42.080Z,99.90
2018-08-20T12:21:11.948Z,99.90
2018-08-20T12:23:41.259Z,99.90
2018-08-20T12:26:10.747Z,99.90
2018-08-20T12:28:40.942Z,99.90
2018-08-20T12:31:10.120Z,99.90
2018-08-20T12:33:39.232Z,99.90
2018-08-20T12:36:08.509Z,99.90
2018-08-20T12:38:37.619Z,99.90
2018-08-20T12:41:06.803Z,99.90
2018-08-20T12:43:35.976Z,99.90
2018-08-20T12:46:05.505Z,99.90
2018-08-20T12:48:34.711Z,99.90
2018-08-20T12:51:04.633Z,99.90
2018-08-20T12:53:33.816Z,99.90
2018-08-20T12:56:03.078Z,99.90
2018-08-20T12:58:32.258Z,99.90
2018-08-20T13:01:02.527Z,99.90
2018-08-20T13:03:31.736Z,99.90
2018-08-20T13:06:01.121Z,99.90
2018-08-20T13:08:30.282Z,99.90
2018-08-20T13:10:59.436Z,99.90
2018-08-20T13:13:28.655Z,99.90
2018-08-20T13:15:58.969Z,99.90
2018-08-20T13:18:28.052Z,99.90
2018-08-20T13:20:57.244Z,99.90
2018-08-20T13:23:26.450Z,99.90
2018-08-20T13:25:55.536Z,99.90
2018-08-20T13:28:24.669Z,99.90
2018-08-20T13:30:53.866Z,99.90
2018-08-20T13:33:23.140Z,99.90
2018-08-20T13:35:52.457Z,99.90
2018-08-20T13:38:21.605Z,99.90
2018-08-20T13:40:50.833Z,99.90
2018-08-20T13:43:19.909Z,99.90
2018-08-20T13:45:49.145Z,99.90
2018-08-20T13:48:18.325Z,99.90
2018-08-20T13:50:47.469Z,99.90
2018-08-20T13:53:16.612Z,99.90
2018-08-20T13:55:46.168Z,99.90
2018-08-20T13:58:15.234Z,99.90
2018-08-20T14:00:44.524Z,99.90
2018-08-20T14:03:13.864Z,99.90
2018-08-20T14:05:42.953Z,99.90
2018-08-20T14:08:12.612Z,99.90
2018-08-20T14:10:41.813Z,99.90
2018-08-20T14:13:10.923Z,99.90
2018-08-20T14:15:40.977Z,99.90
2018-08-20T14:18:10.581Z,99.90
2018-08-20T14:21:17.648Z,99.90
2018-08-20T14:23:47.856Z,99.90
2018-08-20T14:26:17.057Z,99.90
2018-08-20T14:28:46.170Z,99.90
2018-08-20T14:31:15.268Z,99.90
2018-08-20T14:33:44.424Z,99.90
2018-08-20T14:36:13.629Z,99.90
2018-08-20T14:38:42.733Z,99.90
2018-08-20T14:41:11.820Z,99.90
2018-08-20T14:43:40.915Z,99.90
2018-08-20T14:46:15.700Z,99.90
2018-08-20T14:48:44.821Z,99.90
2018-08-20T14:51:13.969Z,99.90
2018-08-20T14:53:43.366Z,99.90
2018-08-20T14:56:12.561Z,99.90
2018-08-20T14:58:41.670Z,99.90
2018-08-20T15:01:10.792Z,99.90
2018-08-20T15:03:39.944Z,99.90
2018-08-20T15:06:09.788Z,99.90
2018-08-20T15:08:40.084Z,99.90
2018-08-20T15:11:09.323Z,99.90
2018-08-20T15:13:38.432Z,99.90
2018-08-20T15:16:07.913Z,99.90
2018-08-20T15:18:36.900Z,99.90
2018-08-20T15:21:06.020Z,99.90
2018-08-20T15:23:35.163Z,99.90
2018-08-20T15:26:04.832Z,99.90
2018-08-20T15:28:34.791Z,99.90
2018-08-20T15:31:03.918Z,99.90
2018-08-20T15:33:33.377Z,99.90
2018-08-20T15:36:03.828Z,99.90
2018-08-20T15:38:33.016Z,99.90
2018-08-20T15:41:02.444Z,99.90
2018-08-20T15:43:31.519Z,99.90
2018-08-20T15:46:00.611Z,99.90
2018-08-20T15:48:29.919Z,99.90
2018-08-20T15:50:59.333Z,99.90
2018-08-20T15:53:28.578Z,99.90
2018-08-20T15:55:57.982Z,99.90
2018-08-20T15:58:27.294Z,99.90
2018-08-20T16:00:57.549Z,99.90
2018-08-20T16:03:26.710Z,99.90
2018-08-20T16:05:55.879Z,99.90
2018-08-20T16:08:25.201Z,99.90
2018-08-20T16:10:54.327Z,99.90
2018-08-20T16:13:23.493Z,99.90
2018-08-20T16:15:52.589Z,99.90
2018-08-20T16:18:21.828Z,99.90
2018-08-20T16:20:51.025Z,99.90
2018-08-20T16:23:20.317Z,99.90
2018-08-20T16:25:49.464Z,99.90
2018-08-20T16:28:18.700Z,99.90
2018-08-20T16:30:47.925Z,99.90
2018-08-20T16:33:17.119Z,99.90
2018-08-20T16:35:46.553Z,99.90
2018-08-20T16:38:16.575Z,99.90
2018-08-20T16:40:46.353Z,99.90
2018-08-20T16:43:16.101Z,99.90
2018-08-20T16:45:45.628Z,99.90
2018-08-20T16:48:14.721Z,99.90
2018-08-20T16:50:43.901Z,99.90
2018-08-20T16:53:13.016Z,99.90
2018-08-20T16:55:42.268Z,99.90
2018-08-20T16:58:11.372Z,99.90
2018-08-20T17:00:40.537Z,99.90
2018-08-20T17:03:11.236Z,99.90
2018-08-20T17:05:45.772Z,99.90
2018-08-20T17:08:20.099Z,99.90
2018-08-20T17:10:58.488Z,99.90
2018-08-20T17:13:27.627Z,99.90
2018-08-20T17:15:56.754Z,99.90
2018-08-20T17:18:25.990Z,99.90
2018-08-20T17:20:55.318Z,99.90
2018-08-20T17:23:25.138Z,99.90
2018-08-20T17:25:55.533Z,99.90
2018-08-20T17:28:26.057Z,99.90
2018-08-20T17:30:57.815Z,99.90
2018-08-20T17:33:30.914Z,99.90
2018-08-20T17:36:00.316Z,99.90
2018-08-20T17:38:29.601Z,99.90
2018-08-20T17:40:58.705Z,99.90
2018-08-20T17:43:27.859Z,99.90
2018-08-20T17:45:58.431Z,99.90
2018-08-20T17:48:30.164Z,99.90
2018-08-20T17:50:59.971Z,99.90
2018-08-20T17:54:02.274Z,99.90
2018-08-20T17:56:31.647Z,99.90
2018-08-20T17:59:06.117Z,99.90
2018-08-20T18:01:36.053Z,99.90
2018-08-20T18:04:05.544Z,99.90
2018-08-20T18:06:48.584Z,99.90
2018-08-20T18:09:17.757Z,99.90
2018-08-20T18:11:51.996Z,99.90
2018-08-20T18:14:22.277Z,99.90
2018-08-20T18:16:51.485Z,99.90
2018-08-20T18:19:20.666Z,99.90
2018-08-20T18:21:50.064Z,99.90
2018-08-20T18:24:20.344Z,99.90
2018-08-20T18:26:53.669Z,99.90
2018-08-20T18:29:23.532Z,99.90
2018-08-20T18:31:59.953Z,99.90
2018-08-20T18:34:29.192Z,99.90
2018-08-20T18:37:02.454Z,99.90
2018-08-20T18:39:31.692Z,99.90
2018-08-20T18:42:03.787Z,99.90
2018-08-20T18:44:32.985Z,99.90
2018-08-20T18:47:02.350Z,99.90
2018-08-20T18:49:31.809Z,99.90
2018-08-20T18:52:07.289Z,99.90
2018-08-20T18:54:39.717Z,99.90
2018-08-20T18:57:09.244Z,99.90
2018-08-20T18:59:39.261Z,99.90
2018-08-20T19:02:12.116Z,99.90
2018-08-20T19:04:46.768Z,99.90
2018-08-20T19:07:16.838Z,99.90
2018-08-20T19:09:48.482Z,99.90
2018-08-20T19:12:18.151Z,99.90
2018-08-20T19:14:47.358Z,99.90
2018-08-20T19:17:26.813Z,99.90
2018-08-20T19:20:00.547Z,99.90
2018-08-20T19:22:30.741Z,99.90
2018-08-20T19:24:59.977Z,99.90
2018-08-20T19:27:31.743Z,99.90
2018-08-20T19:30:10.097Z,99.90
2018-08-20T19:32:39.551Z,99.90
2018-08-20T19:35:08.753Z,99.90
2018-08-20T19:37:38.438Z,99.90
2018-08-20T19:40:08.245Z,99.90
2018-08-20T19:42:37.511Z,99.90
2018-08-20T19:45:08.678Z,99.90
2018-08-20T19:47:38.111Z,99.90
2018-08-20T19:50:09.122Z,99.90
2018-08-20T19:52:39.086Z,99.90
2018-08-20T19:55:10.824Z,99.90
2018-08-20T19:57:40.893Z,99.90
2018-08-20T20:00:12.052Z,99.90
2018-08-20T20:02:42.669Z,99.90
2018-08-20T20:05:13.772Z,99.90
2018-08-20T20:07:53.622Z,99.90
2018-08-20T20:10:22.785Z,99.90
2018-08-20T20:12:52.822Z,99.90
2018-08-20T20:15:22.657Z,99.90
2018-08-20T20:17:52.420Z,99.90
2018-08-20T20:20:21.648Z,99.90
2018-08-20T20:22:50.760Z,99.90
2018-08-20T20:25:20.112Z,99.90
2018-08-20T20:27:49.541Z,99.90
2018-08-20T20:30:18.651Z,99.90
2018-08-20T20:32:49.372Z,99.90
2018-08-20T20:35:18.528Z,99.90
2018-08-20T20:37:47.664Z,99.90
2018-08-20T20:40:17.250Z,99.90
2018-08-20T20:42:46.402Z,99.90
2018-08-20T20:45:16.001Z,99.90
2018-08-20T20:47:45.200Z,99.90
2018-08-20T20:50:14.444Z,99.90
2018-08-20T20:52:43.662Z,99.90
2018-08-20T20:55:12.766Z,99.90
2018-08-20T20:57:41.951Z,99.90
2018-08-20T21:00:11.091Z,99.90
2018-08-20T21:02:40.390Z,99.90
2018-08-20T21:05:11.066Z,99.90
2018-08-20T21:07:40.264Z,99.90
2018-08-20T21:10:10.679Z,99.90
2018-08-20T21:12:39.824Z,99.90
2018-08-20T21:15:09.702Z,99.90
2018-08-20T21:17:38.904Z,99.90
2018-08-20T21:20:09.731Z,99.90
2018-08-20T21:22:39.264Z,99.90
2018-08-20T21:25:09.535Z,99.90
2018-08-20T21:27:38.997Z,99.90
2018-08-20T21:30:08.140Z,99.90
2018-08-20T21:32:38.669Z,99.90
2018-08-20T21:35:07.863Z,99.90
2018-08-20T21:37:37.696Z,99.90
2018-08-20T21:40:06.873Z,99.90
2018-08-20T21:42:41.636Z,99.90
2018-08-20T21:45:11.056Z,99.90
2018-08-20T21:47:40.308Z,99.90
2018-08-20T21:50:09.470Z,99.90
2018-08-20T21:52:38.906Z,99.90
2018-08-20T21:55:08.482Z,99.90
2018-08-20T21:57:41.190Z,99.90
2018-08-20T22:00:14.164Z,99.90
2018-08-20T22:02:47.866Z,99.90
2018-08-20T22:05:17.000Z,99.90
2018-08-20T22:07:47.772Z,99.90
2018-08-20T22:10:16.925Z,99.90
2018-08-20T22:12:46.447Z,99.90
2018-08-20T22:15:15.562Z,99.90
2018-08-20T22:17:44.699Z,99.90
2018-08-20T22:20:13.811Z,99.90
2018-08-20T22:22:43.063Z,99.90
2018-08-20T22:25:14.629Z,99.90
2018-08-20T22:27:49.424Z,99.90
2018-08-20T22:30:19.137Z,99.90
2018-08-20T22:32:49.245Z,99.90
2018-08-20T22:35:24.325Z,99.90
2018-08-20T22:37:54.134Z,99.90
2018-08-20T22:40:23.463Z,99.90
2018-08-20T22:42:57.746Z,99.90
2018-08-20T22:45:26.870Z,99.90
2018-08-20T22:47:56.076Z,99.90
2018-08-20T22:50:25.533Z,99.90
2018-08-20T22:52:54.782Z,99.90
2018-08-20T22:55:23.927Z,99.90
2018-08-20T22:58:14.220Z,99.90
2018-08-20T23:00:43.379Z,99.90
2018-08-20T23:03:12.520Z,99.90
2018-08-20T23:05:41.668Z,99.90
2018-08-20T23:08:15.661Z,99.90
2018-08-20T23:10:44.788Z,99.90
2018-08-20T23:13:13.911Z,99.90
2018-08-20T23:15:43.005Z,99.90
2018-08-20T23:18:12.115Z,99.90
2018-08-20T23:20:41.240Z,99.90
2018-08-20T23:23:10.393Z,99.90
2018-08-20T23:25:39.666Z,99.90
2018-08-20T23:28:08.821Z,99.90
2018-08-20T23:30:38.902Z,99.90
2018-08-20T23:33:08.209Z,99.90
2018-08-20T23:35:37.291Z,99.90
2018-08-20T23:38:06.424Z,99.90
2018-08-20T23:40:35.560Z,99.90
2018-08-20T23:43:04.703Z,99.90
2018-08-20T23:45:33.872Z,99.90
2018-08-20T23:48:03.069Z,99.90
2018-08-20T23:50:32.176Z,99.90
2018-08-20T23:53:01.905Z,99.90
2018-08-20T23:55:31.056Z,99.90
2018-08-20T23:58:00.793Z,99.90
